createdAt,value
2018-05-12T00:00:06.402Z,91.50
2018-05-12T00:02:34.004Z,91.55
2018-05-12T00:05:01.497Z,91.63
2018-05-12T00:07:29.002Z,91.60
2018-05-12T00:09:56.589Z,91.62
2018-05-12T00:12:24.044Z,91.71
2018-05-12T00:14:51.537Z,91.85
2018-05-12T00:17:19.006Z,91.98
2018-05-12T00:19:46.496Z,92.05
2018-05-12T00:22:14.032Z,92.31
2018-05-12T00:24:41.621Z,92.43
2018-05-12T00:27:09.076Z,92.36
2018-05-12T00:29:36.655Z,92.33
2018-05-12T00:32:04.137Z,92.28
2018-05-12T00:34:31.633Z,92.26
2018-05-12T00:36:59.104Z,92.21
2018-05-12T00:39:26.613Z,92.22
2018-05-12T00:41:54.169Z,92.38
2018-05-12T00:44:21.664Z,92.50
2018-05-12T00:46:49.151Z,92.54
2018-05-12T00:49:16.624Z,92.56
2018-05-12T00:51:44.128Z,92.51
2018-05-12T00:54:11.604Z,92.40
2018-05-12T00:56:39.048Z,92.45
2018-05-12T00:59:06.569Z,92.56
2018-05-12T01:01:34.052Z,92.61
2018-05-12T01:04:01.537Z,92.59
2018-05-12T01:06:29.049Z,92.53
2018-05-12T01:08:56.525Z,92.67
2018-05-12T01:11:23.981Z,92.80
2018-05-12T01:13:51.513Z,92.84
2018-05-12T01:16:19.019Z,92.94
2018-05-12T01:18:46.471Z,92.99
2018-05-12T01:21:13.960Z,93.00
2018-05-12T01:23:41.456Z,93.19
2018-05-12T01:26:08.908Z,93.30
2018-05-12T01:28:36.389Z,93.33
2018-05-12T01:31:03.884Z,93.45
2018-05-12T01:33:31.381Z,93.51
2018-05-12T01:35:58.847Z,93.50
2018-05-12T01:38:26.328Z,93.48
2018-05-12T01:40:53.920Z,93.52
2018-05-12T01:43:21.467Z,93.62
2018-05-12T01:45:48.952Z,93.66
2018-05-12T01:48:16.416Z,93.72
2018-05-12T01:50:43.919Z,93.76
2018-05-12T01:53:11.387Z,93.79
2018-05-12T01:55:38.944Z,93.80
2018-05-12T01:58:06.423Z,93.84
2018-05-12T02:00:33.878Z,93.85
2018-05-12T02:03:01.374Z,93.86
2018-05-12T02:05:28.865Z,93.92
2018-05-12T02:07:56.331Z,93.99
2018-05-12T02:10:23.879Z,94.05
2018-05-12T02:12:51.471Z,94.03
2018-05-12T02:15:18.948Z,94.08
2018-05-12T02:17:46.480Z,94.09
2018-05-12T02:20:13.968Z,93.82
2018-05-12T02:22:41.469Z,93.65
2018-05-12T02:25:09.001Z,93.70
2018-05-12T02:27:36.500Z,93.76
2018-05-12T02:30:03.990Z,93.87
2018-05-12T02:32:31.478Z,93.83
2018-05-12T02:34:58.975Z,93.65
2018-05-12T02:37:26.454Z,93.48
2018-05-12T02:39:53.958Z,93.28
2018-05-12T02:42:21.469Z,93.05
2018-05-12T02:44:48.983Z,92.78
2018-05-12T02:47:16.478Z,92.62
2018-05-12T02:49:43.970Z,92.63
2018-05-12T02:52:11.488Z,92.60
2018-05-12T02:54:39.023Z,92.50
2018-05-12T02:57:06.501Z,92.42
2018-05-12T02:59:33.986Z,92.26
2018-05-12T03:02:01.450Z,92.12
2018-05-12T03:04:28.935Z,92.16
2018-05-12T03:06:56.408Z,92.18
2018-05-12T03:09:23.909Z,92.15
2018-05-12T03:11:51.386Z,92.16
2018-05-12T03:14:18.868Z,92.06
2018-05-12T03:16:46.328Z,91.98
2018-05-12T03:19:13.833Z,92.01
2018-05-12T03:21:41.378Z,92.04
2018-05-12T03:24:08.858Z,92.03
2018-05-12T03:26:36.346Z,92.03
2018-05-12T03:29:03.810Z,92.06
2018-05-12T03:31:31.321Z,91.98
2018-05-12T03:33:58.793Z,91.82
2018-05-12T03:36:26.335Z,91.71
2018-05-12T03:38:53.912Z,91.83
2018-05-12T03:41:21.453Z,91.80
2018-05-12T03:43:48.943Z,91.63
2018-05-12T03:46:16.399Z,91.51
2018-05-12T03:48:43.939Z,91.51
2018-05-12T03:51:11.499Z,91.40
2018-05-12T03:53:38.976Z,91.36
2018-05-12T03:56:06.457Z,91.26
2018-05-12T03:58:33.979Z,90.98
2018-05-12T04:01:01.471Z,90.63
2018-05-12T04:03:29.099Z,90.61
2018-05-12T04:06:08.509Z,90.72
2018-05-12T04:08:47.856Z,90.64
2018-05-12T04:11:28.176Z,90.29
2018-05-12T04:13:55.667Z,90.25
2018-05-12T04:16:23.137Z,90.09
2018-05-12T04:18:50.620Z,90.04
2018-05-12T04:21:18.122Z,90.08
2018-05-12T04:23:45.698Z,90.02
2018-05-12T04:26:13.253Z,89.80
2018-05-12T04:28:40.814Z,89.95
2018-05-12T04:31:08.273Z,90.04
2018-05-12T04:33:35.751Z,89.90
2018-05-12T04:36:03.232Z,89.93
2018-05-12T04:38:30.739Z,90.14
2018-05-12T04:40:58.237Z,90.19
2018-05-12T04:43:25.816Z,90.45
2018-05-12T04:45:53.252Z,90.35
2018-05-12T04:48:20.720Z,90.31
2018-05-12T04:50:48.214Z,89.75
2018-05-12T04:53:15.696Z,89.78
2018-05-12T04:55:43.181Z,89.40
2018-05-12T04:58:10.693Z,88.79
2018-05-12T05:00:38.189Z,87.52
2018-05-12T05:03:05.693Z,85.63
2018-05-12T05:05:33.173Z,82.95
2018-05-12T05:08:00.663Z,80.41
2018-05-12T05:10:28.181Z,79.26
2018-05-12T05:12:55.734Z,79.85
2018-05-12T05:15:23.307Z,81.38
2018-05-12T05:17:50.753Z,82.93
2018-05-12T05:20:18.342Z,84.08
2018-05-12T05:22:45.823Z,83.86
2018-05-12T05:25:13.313Z,83.36
2018-05-12T05:27:40.790Z,83.75
2018-05-12T05:30:08.250Z,83.96
2018-05-12T05:32:35.824Z,83.52
2018-05-12T05:35:03.298Z,83.04
2018-05-12T05:37:30.802Z,81.98
2018-05-12T05:39:58.409Z,81.81
2018-05-12T05:42:25.883Z,81.16
2018-05-12T05:44:53.350Z,80.48
2018-05-12T05:47:20.831Z,80.52
2018-05-12T05:49:48.325Z,80.40
2018-05-12T05:52:15.829Z,80.48
2018-05-12T05:54:43.372Z,79.42
2018-05-12T05:57:10.836Z,79.40
2018-05-12T05:59:38.329Z,78.54
2018-05-12T06:02:05.861Z,77.99
2018-05-12T06:04:33.358Z,77.55
2018-05-12T06:07:00.870Z,76.65
2018-05-12T06:09:28.382Z,75.71
2018-05-12T06:11:55.876Z,74.93
2018-05-12T06:14:23.339Z,74.14
2018-05-12T06:16:50.825Z,73.33
2018-05-12T06:19:18.423Z,73.07
2018-05-12T06:21:45.916Z,72.91
2018-05-12T06:24:13.411Z,73.18
2018-05-12T06:26:40.859Z,73.05
2018-05-12T06:29:08.313Z,73.29
2018-05-12T06:31:35.787Z,72.42
2018-05-12T06:34:03.276Z,71.93
2018-05-12T06:36:30.759Z,70.01
2018-05-12T06:38:58.249Z,69.26
2018-05-12T06:41:25.847Z,69.25
2018-05-12T06:43:53.311Z,69.44
2018-05-12T06:46:20.948Z,69.01
2018-05-12T06:48:48.489Z,68.88
2018-05-12T06:51:15.955Z,68.67
2018-05-12T06:53:43.523Z,70.60
2018-05-12T06:56:11.005Z,71.11
2018-05-12T06:58:38.508Z,71.59
2018-05-12T07:01:06.023Z,71.17
2018-05-12T07:03:33.543Z,71.10
2018-05-12T07:06:01.106Z,69.42
2018-05-12T07:08:28.680Z,68.20
2018-05-12T07:10:56.197Z,67.11
2018-05-12T07:13:23.712Z,66.11
2018-05-12T07:15:51.186Z,65.08
2018-05-12T07:18:18.688Z,64.65
2018-05-12T07:20:46.172Z,64.48
2018-05-12T07:23:13.625Z,65.12
2018-05-12T07:25:41.172Z,65.98
2018-05-12T07:28:08.658Z,66.30
2018-05-12T07:30:36.153Z,65.48
2018-05-12T07:33:03.749Z,64.65
2018-05-12T07:35:31.212Z,62.99
2018-05-12T07:37:58.704Z,61.49
2018-05-12T07:40:26.219Z,61.06
2018-05-12T07:42:53.705Z,60.22
2018-05-12T07:45:21.161Z,58.50
2018-05-12T07:47:48.654Z,57.47
2018-05-12T07:50:16.181Z,57.53
2018-05-12T07:52:43.715Z,58.57
2018-05-12T07:55:11.295Z,59.57
2018-05-12T07:57:38.865Z,61.19
2018-05-12T08:00:06.383Z,60.55
2018-05-12T08:02:33.864Z,59.96
2018-05-12T08:05:01.408Z,58.82
2018-05-12T08:07:28.908Z,59.45
2018-05-12T08:09:56.411Z,60.49
2018-05-12T08:12:23.888Z,61.15
2018-05-12T08:14:51.347Z,61.80
2018-05-12T08:17:18.939Z,61.44
2018-05-12T08:19:46.408Z,61.13
2018-05-12T08:22:14.457Z,60.81
2018-05-12T08:24:41.978Z,60.65
2018-05-12T08:27:09.577Z,60.54
2018-05-12T08:29:37.128Z,60.80
2018-05-12T08:32:04.876Z,61.72
2018-05-12T08:34:32.693Z,60.86
2018-05-12T08:37:00.335Z,59.83
2018-05-12T08:39:28.081Z,60.66
2018-05-12T08:41:55.606Z,60.29
2018-05-12T08:44:23.098Z,60.24
2018-05-12T08:46:50.566Z,58.03
2018-05-12T08:49:18.119Z,57.17
2018-05-12T08:51:45.657Z,55.07
2018-05-12T08:54:13.183Z,54.12
2018-05-12T08:56:40.674Z,54.31
2018-05-12T08:59:08.160Z,55.22
2018-05-12T09:01:35.805Z,55.75
2018-05-12T09:04:03.326Z,57.28
2018-05-12T09:06:30.891Z,57.85
2018-05-12T09:08:58.338Z,58.49
2018-05-12T09:11:25.805Z,59.07
2018-05-12T09:13:53.307Z,58.34
2018-05-12T09:16:20.804Z,58.15
2018-05-12T09:18:48.280Z,58.90
2018-05-12T09:21:15.770Z,58.97
2018-05-12T09:23:43.250Z,57.87
2018-05-12T09:26:10.759Z,58.20
2018-05-12T09:28:38.260Z,59.09
2018-05-12T09:31:05.827Z,59.95
2018-05-12T09:33:33.318Z,60.39
2018-05-12T09:36:00.887Z,59.82
2018-05-12T09:38:28.462Z,60.37
2018-05-12T09:40:56.039Z,61.04
2018-05-12T09:43:23.527Z,60.84
2018-05-12T09:45:51.037Z,60.22
2018-05-12T09:48:18.557Z,58.46
2018-05-12T09:50:46.046Z,58.33
2018-05-12T09:53:13.505Z,58.94
2018-05-12T09:55:40.971Z,58.68
2018-05-12T09:58:08.767Z,58.52
2018-05-12T10:00:36.228Z,57.30
2018-05-12T10:03:03.700Z,56.83
2018-05-12T10:05:31.172Z,57.13
2018-05-12T10:07:58.670Z,56.83
2018-05-12T10:10:26.160Z,57.44
2018-05-12T10:12:53.702Z,56.24
2018-05-12T10:15:21.166Z,55.53
2018-05-12T10:17:48.772Z,53.45
2018-05-12T10:20:16.230Z,54.36
2018-05-12T10:22:43.702Z,56.28
2018-05-12T10:25:11.248Z,55.57
2018-05-12T10:27:38.746Z,54.96
2018-05-12T10:30:06.244Z,54.89
2018-05-12T10:32:33.716Z,55.92
2018-05-12T10:35:01.381Z,55.79
2018-05-12T10:37:28.904Z,55.55
2018-05-12T10:39:56.368Z,55.18
2018-05-12T10:42:23.975Z,55.15
2018-05-12T10:44:51.559Z,55.10
2018-05-12T10:47:19.055Z,56.59
2018-05-12T10:49:46.555Z,56.56
2018-05-12T10:52:14.452Z,57.36
2018-05-12T10:54:41.973Z,56.58
2018-05-12T10:57:09.466Z,55.64
2018-05-12T10:59:36.965Z,54.84
2018-05-12T11:02:04.488Z,54.68
2018-05-12T11:04:31.955Z,53.31
2018-05-12T11:06:59.528Z,54.58
2018-05-12T11:09:27.025Z,54.72
2018-05-12T11:11:54.497Z,54.82
2018-05-12T11:14:22.136Z,54.76
2018-05-12T11:16:49.623Z,53.93
2018-05-12T11:19:17.108Z,54.66
2018-05-12T11:21:44.638Z,54.80
2018-05-12T11:24:12.121Z,54.07
2018-05-12T11:26:39.620Z,53.51
2018-05-12T11:29:07.103Z,53.66
2018-05-12T11:31:34.596Z,54.18
2018-05-12T11:34:02.087Z,54.33
2018-05-12T11:36:29.595Z,54.42
2018-05-12T11:38:57.077Z,54.95
2018-05-12T11:41:24.576Z,55.32
2018-05-12T11:43:52.052Z,54.48
2018-05-12T11:46:19.526Z,53.97
2018-05-12T11:48:47.030Z,54.59
2018-05-12T11:51:14.666Z,54.47
2018-05-12T11:53:42.191Z,55.14
2018-05-12T11:56:09.688Z,55.71
2018-05-12T11:58:37.216Z,56.50
2018-05-12T12:01:04.809Z,56.10
2018-05-12T12:03:32.328Z,55.23
2018-05-12T12:05:59.912Z,55.37
2018-05-12T12:08:27.417Z,55.29
2018-05-12T12:10:54.939Z,54.57
2018-05-12T12:13:22.431Z,53.24
2018-05-12T12:15:49.902Z,53.36
2018-05-12T12:18:17.407Z,52.37
2018-05-12T12:20:44.893Z,51.26
2018-05-12T12:23:12.425Z,50.91
2018-05-12T12:25:39.916Z,51.09
2018-05-12T12:28:07.446Z,51.17
2018-05-12T12:30:34.943Z,51.21
2018-05-12T12:33:02.430Z,51.63
2018-05-12T12:35:30.001Z,51.45
2018-05-12T12:37:57.492Z,51.07
2018-05-12T12:40:24.996Z,50.79
2018-05-12T12:42:52.521Z,50.90
2018-05-12T12:45:20.051Z,51.27
2018-05-12T12:47:47.577Z,52.06
2018-05-12T12:50:15.138Z,52.94
2018-05-12T12:52:42.713Z,53.13
2018-05-12T12:55:10.184Z,53.86
2018-05-12T12:57:37.750Z,53.49
2018-05-12T13:00:05.230Z,53.69
2018-05-12T13:02:32.724Z,53.74
2018-05-12T13:05:00.237Z,53.79
2018-05-12T13:07:27.755Z,53.44
2018-05-12T13:09:55.285Z,53.10
2018-05-12T13:12:22.880Z,53.43
2018-05-12T13:14:50.406Z,52.56
2018-05-12T13:17:17.867Z,52.49
2018-05-12T13:19:45.446Z,52.49
2018-05-12T13:22:12.981Z,52.92
2018-05-12T13:24:40.488Z,52.90
2018-05-12T13:27:07.981Z,51.86
2018-05-12T13:29:35.439Z,52.04
2018-05-12T13:32:02.905Z,52.02
2018-05-12T13:34:30.365Z,51.88
2018-05-12T13:36:57.841Z,52.12
2018-05-12T13:39:25.341Z,52.72
2018-05-12T13:41:52.862Z,53.05
2018-05-12T13:44:20.341Z,53.91
2018-05-12T13:46:47.807Z,53.26
2018-05-12T13:49:15.352Z,54.01
2018-05-12T13:51:42.835Z,54.02
2018-05-12T13:54:10.340Z,52.92
2018-05-12T13:56:37.907Z,53.19
2018-05-12T13:59:05.503Z,52.27
2018-05-12T14:01:33.078Z,51.39
2018-05-12T14:04:00.535Z,50.47
2018-05-12T14:06:28.057Z,50.52
2018-05-12T14:08:55.636Z,50.56
2018-05-12T14:11:23.111Z,50.25
2018-05-12T14:13:50.611Z,50.38
2018-05-12T14:16:18.080Z,50.50
2018-05-12T14:18:45.565Z,50.75
2018-05-12T14:21:13.034Z,50.72
2018-05-12T14:23:40.491Z,51.88
2018-05-12T14:26:08.022Z,52.75
2018-05-12T14:28:35.493Z,52.20
2018-05-12T14:31:02.964Z,51.81
2018-05-12T14:33:30.515Z,51.45
2018-05-12T14:35:58.031Z,50.99
2018-05-12T14:38:25.531Z,50.91
2018-05-12T14:40:53.218Z,50.68
2018-05-12T14:43:20.750Z,49.58
2018-05-12T14:45:48.273Z,49.54
2018-05-12T14:48:15.783Z,49.08
2018-05-12T14:50:43.273Z,48.26
2018-05-12T14:53:10.808Z,48.41
2018-05-12T14:55:38.288Z,48.84
2018-05-12T14:58:05.765Z,49.51
2018-05-12T15:00:33.244Z,48.83
2018-05-12T15:03:00.729Z,48.28
2018-05-12T15:05:28.218Z,47.22
2018-05-12T15:07:55.701Z,43.87
2018-05-12T15:10:23.167Z,41.59
2018-05-12T15:12:50.664Z,40.83
2018-05-12T15:15:18.173Z,43.96
2018-05-12T15:17:45.635Z,47.65
2018-05-12T15:20:13.089Z,46.01
2018-05-12T15:22:40.606Z,42.35
2018-05-12T15:25:08.099Z,39.39
2018-05-12T15:27:35.674Z,37.53
2018-05-12T15:30:03.198Z,36.80
2018-05-12T15:32:30.679Z,36.25
2018-05-12T15:34:58.155Z,36.78
2018-05-12T15:37:25.657Z,35.43
2018-05-12T15:39:53.176Z,36.30
2018-05-12T15:42:20.676Z,36.16
2018-05-12T15:44:48.127Z,36.37
2018-05-12T15:47:15.620Z,36.20
2018-05-12T15:49:43.121Z,37.26
2018-05-12T15:52:10.614Z,38.70
2018-05-12T15:54:38.117Z,41.46
2018-05-12T15:57:05.616Z,42.91
2018-05-12T15:59:33.117Z,41.66
2018-05-12T16:02:00.652Z,40.22
2018-05-12T16:04:28.248Z,40.28
2018-05-12T16:06:55.736Z,40.79
2018-05-12T16:09:23.225Z,42.23
2018-05-12T16:11:50.724Z,43.74
2018-05-12T16:14:18.207Z,46.04
2018-05-12T16:16:45.766Z,46.41
2018-05-12T16:19:13.286Z,46.36
2018-05-12T16:21:40.777Z,46.42
2018-05-12T16:24:08.281Z,46.60
2018-05-12T16:26:35.778Z,47.30
2018-05-12T16:29:03.251Z,47.43
2018-05-12T16:31:30.851Z,48.39
2018-05-12T16:33:58.264Z,49.16
2018-05-12T16:36:25.813Z,49.61
2018-05-12T16:38:53.328Z,48.91
2018-05-12T16:41:20.826Z,48.51
2018-05-12T16:43:48.283Z,49.74
2018-05-12T16:46:15.848Z,49.44
2018-05-12T16:48:43.376Z,49.55
2018-05-12T16:51:10.894Z,49.61
2018-05-12T16:53:38.396Z,49.10
2018-05-12T16:56:05.854Z,48.91
2018-05-12T16:58:33.377Z,51.22
2018-05-12T17:01:00.995Z,52.73
2018-05-12T17:03:28.459Z,53.18
2018-05-12T17:05:55.941Z,53.71
2018-05-12T17:08:23.405Z,54.25
2018-05-12T17:10:50.877Z,54.85
2018-05-12T17:13:18.457Z,54.97
2018-05-12T17:15:46.115Z,55.14
2018-05-12T17:18:13.685Z,54.97
2018-05-12T17:20:41.273Z,55.20
2018-05-12T17:23:09.081Z,55.30
2018-05-12T17:25:37.611Z,55.26
2018-05-12T17:28:05.123Z,55.24
2018-05-12T17:30:32.607Z,55.26
2018-05-12T17:33:00.167Z,55.71
2018-05-12T17:35:27.659Z,55.96
2018-05-12T17:37:55.144Z,56.12
2018-05-12T17:40:22.936Z,56.43
2018-05-12T17:42:50.546Z,56.62
2018-05-12T17:45:18.109Z,56.64
2018-05-12T17:47:45.686Z,56.83
2018-05-12T17:50:13.226Z,56.96
2018-05-12T17:52:41.001Z,57.37
2018-05-12T17:55:09.601Z,57.56
2018-05-12T17:57:37.087Z,58.05
2018-05-12T18:00:04.594Z,57.93
2018-05-12T18:02:32.076Z,58.29
2018-05-12T18:04:59.600Z,58.40
2018-05-12T18:07:27.133Z,58.75
2018-05-12T18:09:54.777Z,58.84
2018-05-12T18:12:22.475Z,59.04
2018-05-12T18:14:50.065Z,59.14
2018-05-12T18:17:17.895Z,59.36
2018-05-12T18:19:45.461Z,59.53
2018-05-12T18:22:13.024Z,59.88
2018-05-12T18:24:40.518Z,60.23
2018-05-12T18:27:08.103Z,60.41
2018-05-12T18:29:35.585Z,60.67
2018-05-12T18:32:03.081Z,60.97
2018-05-12T18:34:30.591Z,61.30
2018-05-12T18:36:58.097Z,61.60
2018-05-12T18:39:25.623Z,61.81
2018-05-12T18:41:53.203Z,62.11
2018-05-12T18:44:20.695Z,62.36
2018-05-12T18:46:48.209Z,62.79
2018-05-12T18:49:18.537Z,63.00
2018-05-12T18:51:46.020Z,63.30
2018-05-12T18:54:16.432Z,63.71
2018-05-12T18:56:44.004Z,63.84
2018-05-12T18:59:11.398Z,64.07
2018-05-12T19:01:38.914Z,64.26
2018-05-12T19:04:06.453Z,64.45
2018-05-12T19:06:34.012Z,64.64
2018-05-12T19:09:01.533Z,64.79
2018-05-12T19:11:29.119Z,65.00
2018-05-12T19:13:56.599Z,65.06
2018-05-12T19:16:24.072Z,65.35
2018-05-12T19:18:51.604Z,65.60
2018-05-12T19:21:19.084Z,65.89
2018-05-12T19:23:46.564Z,66.11
2018-05-12T19:26:14.053Z,66.30
2018-05-12T19:28:41.774Z,66.52
2018-05-12T19:31:09.309Z,66.51
2018-05-12T19:33:36.867Z,66.61
2018-05-12T19:36:04.367Z,66.86
2018-05-12T19:38:31.971Z,67.02
2018-05-12T19:40:59.447Z,67.18
2018-05-12T19:43:26.922Z,67.40
2018-05-12T19:45:54.439Z,67.54
2018-05-12T19:48:21.956Z,67.75
2018-05-12T19:50:49.457Z,67.97
2018-05-12T19:53:16.980Z,68.17
2018-05-12T19:55:44.437Z,68.33
2018-05-12T19:58:11.937Z,68.55
2018-05-12T20:00:39.498Z,68.72
2018-05-12T20:03:07.069Z,68.95
2018-05-12T20:05:34.553Z,69.13
2018-05-12T20:08:02.076Z,69.28
2018-05-12T20:10:29.563Z,69.54
2018-05-12T20:12:57.069Z,69.78
2018-05-12T20:15:24.558Z,69.92
2018-05-12T20:17:52.067Z,70.10
2018-05-12T20:20:19.557Z,70.25
2018-05-12T20:22:47.014Z,70.50
2018-05-12T20:25:14.482Z,70.66
2018-05-12T20:27:41.978Z,70.87
2018-05-12T20:30:09.499Z,71.05
2018-05-12T20:32:36.968Z,71.19
2018-05-12T20:35:04.522Z,71.41
2018-05-12T20:37:32.139Z,71.61
2018-05-12T20:39:59.556Z,71.64
2018-05-12T20:42:27.060Z,71.80
2018-05-12T20:44:54.568Z,71.95
2018-05-12T20:47:22.024Z,72.09
2018-05-12T20:49:49.512Z,72.22
2018-05-12T20:52:17.014Z,72.26
2018-05-12T20:54:44.508Z,72.42
2018-05-12T20:57:12.011Z,72.59
2018-05-12T20:59:39.684Z,72.72
2018-05-12T21:02:07.248Z,72.78
2018-05-12T21:04:34.707Z,72.96
2018-05-12T21:07:02.188Z,73.06
2018-05-12T21:09:29.677Z,73.32
2018-05-12T21:11:57.171Z,73.41
2018-05-12T21:14:25.396Z,73.58
2018-05-12T21:16:52.891Z,73.60
2018-05-12T21:19:20.437Z,73.75
2018-05-12T21:21:47.910Z,74.12
2018-05-12T21:24:15.396Z,74.54
2018-05-12T21:26:42.873Z,74.93
2018-05-12T21:29:10.342Z,75.13
2018-05-12T21:31:37.994Z,75.51
2018-05-12T21:34:05.455Z,75.60
2018-05-12T21:36:32.952Z,75.80
2018-05-12T21:39:00.465Z,75.89
2018-05-12T21:41:27.985Z,76.14
2018-05-12T21:43:55.535Z,76.20
2018-05-12T21:46:23.542Z,76.37
2018-05-12T21:48:51.105Z,76.62
2018-05-12T21:51:18.582Z,76.52
2018-05-12T21:53:46.086Z,76.74
2018-05-12T21:56:13.622Z,76.83
2018-05-12T21:58:41.173Z,77.02
2018-05-12T22:01:08.754Z,77.20
2018-05-12T22:03:36.237Z,77.42
2018-05-12T22:06:03.746Z,77.60
2018-05-12T22:08:31.241Z,77.82
2018-05-12T22:10:58.775Z,77.96
2018-05-12T22:13:26.278Z,78.12
2018-05-12T22:15:53.790Z,78.22
2018-05-12T22:18:21.310Z,78.22
2018-05-12T22:20:48.844Z,78.39
2018-05-12T22:23:16.304Z,78.37
2018-05-12T22:25:43.828Z,78.30
2018-05-12T22:28:11.327Z,78.39
2018-05-12T22:30:38.826Z,78.52
2018-05-12T22:33:06.318Z,78.84
2018-05-12T22:35:33.779Z,78.80
2018-05-12T22:38:01.241Z,78.74
2018-05-12T22:40:31.662Z,78.81
2018-05-12T22:42:59.229Z,78.90
2018-05-12T22:45:26.743Z,78.99
2018-05-12T22:47:54.209Z,79.14
2018-05-12T22:50:21.803Z,79.21
2018-05-12T22:52:49.301Z,79.37
2018-05-12T22:55:16.771Z,79.49
2018-05-12T22:57:44.243Z,79.57
2018-05-12T23:00:11.731Z,79.68
2018-05-12T23:02:39.303Z,79.83
2018-05-12T23:05:06.793Z,80.00
2018-05-12T23:07:34.316Z,80.06
2018-05-12T23:10:01.827Z,80.23
2018-05-12T23:12:29.633Z,80.44
2018-05-12T23:14:57.131Z,80.70
2018-05-12T23:17:24.620Z,80.86
2018-05-12T23:19:52.113Z,81.17
2018-05-12T23:22:19.609Z,81.53
2018-05-12T23:24:47.194Z,81.93
2018-05-12T23:27:14.697Z,82.03
2018-05-12T23:29:42.186Z,82.19
2018-05-12T23:32:09.705Z,82.42
2018-05-12T23:34:37.238Z,82.57
2018-05-12T23:37:04.816Z,82.81
2018-05-12T23:39:32.311Z,82.92
2018-05-12T23:41:59.840Z,82.95
2018-05-12T23:44:27.300Z,83.12
2018-05-12T23:46:54.793Z,83.15
2018-05-12T23:49:22.430Z,83.27
2018-05-12T23:51:49.898Z,83.53
2018-05-12T23:54:17.384Z,83.61
2018-05-12T23:56:44.855Z,83.70
2018-05-12T23:59:12.439Z,83.94
